Time;durP1;ratioP1;P1;durP2;ratioP2;P2;SDS_P1;SDS_P2;PMS_P1;PMS_P2;Temp;Humidity;BMP_temperature;BMP_pressure;BME280_temperature;BME280_humidity;BME280_pressure;Samples;Min_cycle;Max_cycle;Signal;HPM_P1;HPM_P2
2022/08/02 00:02:18;;;;;;;6.43;2.63;;;12.30;99.90;;;;;;4738958;30;20062;-89
2022/08/02 00:04:44;;;;;;;5.60;2.13;;;12.30;99.90;;;;;;4744884;30;20043;-88
2022/08/02 00:07:10;;;;;;;7.38;2.55;;;12.20;99.90;;;;;;4739048;30;20482;-89
2022/08/02 00:09:36;;;;;;;8.02;2.80;;;12.20;99.90;;;;;;4738725;30;20142;-89
2022/08/02 00:12:02;;;;;;;6.65;2.40;;;12.20;99.90;;;;;;4739316;30;20143;-89
2022/08/02 00:14:28;;;;;;;6.25;2.35;;;12.20;99.90;;;;;;4739237;30;20055;-89
2022/08/02 00:16:54;;;;;;;8.20;2.90;;;12.20;99.90;;;;;;4738776;30;20504;-89
2022/08/02 00:19:20;;;;;;;6.18;2.40;;;12.20;99.90;;;;;;4738856;30;20576;-89
2022/08/02 00:21:45;;;;;;;5.43;2.45;;;12.20;99.90;;;;;;4738713;30;20485;-89
2022/08/02 00:24:11;;;;;;;8.85;2.53;;;12.20;99.90;;;;;;4738916;30;20094;-89
2022/08/02 00:26:37;;;;;;;9.20;2.65;;;12.20;99.90;;;;;;4738974;30;20128;-89
2022/08/02 00:29:03;;;;;;;7.45;2.90;;;12.20;99.90;;;;;;4738464;30;20063;-89
2022/08/02 00:31:28;;;;;;;5.78;2.65;;;12.20;99.90;;;;;;4738419;30;20087;-89
2022/08/02 00:33:54;;;;;;;8.55;2.28;;;12.20;99.90;;;;;;4738786;30;20056;-89
2022/08/02 00:36:20;;;;;;;8.30;2.58;;;12.10;99.90;;;;;;4738541;30;20044;-89
2022/08/02 00:38:47;;;;;;;8.07;2.45;;;12.10;99.90;;;;;;4738820;30;20059;-89
2022/08/02 00:41:19;;;;;;;8.50;2.33;;;12.10;99.90;;;;;;4738389;30;20051;-89
2022/08/02 00:43:47;;;;;;;8.43;2.42;;;12.10;99.90;;;;;;4738861;30;20048;-89
2022/08/02 00:46:14;;;;;;;7.75;2.28;;;12.10;99.90;;;;;;4738330;30;20097;-91
2022/08/02 00:48:40;;;;;;;8.98;2.65;;;12.10;99.90;;;;;;4738059;30;20395;-91
2022/08/02 00:51:06;;;;;;;10.40;2.83;;;12.00;99.90;;;;;;4738150;30;20134;-91
2022/08/02 00:53:32;;;;;;;9.43;3.53;;;12.00;99.90;;;;;;4738438;30;20051;-90
2022/08/02 00:55:58;;;;;;;10.38;3.15;;;12.00;99.90;;;;;;4738335;30;20055;-91
2022/08/02 00:58:24;;;;;;;12.05;3.15;;;12.00;99.90;;;;;;4737773;30;20048;-91
2022/08/02 01:00:50;;;;;;;5.93;2.65;;;11.90;99.90;;;;;;4737373;30;20067;-91
2022/08/02 01:03:16;;;;;;;12.25;3.33;;;11.90;99.90;;;;;;4737723;30;20047;-91
2022/08/02 01:05:43;;;;;;;6.55;2.60;;;11.80;99.90;;;;;;4738287;30;20044;-91
2022/08/02 01:08:09;;;;;;;6.03;2.65;;;11.80;99.90;;;;;;4737887;30;20087;-91
2022/08/02 01:10:35;;;;;;;6.30;2.58;;;11.80;99.90;;;;;;4738145;30;20056;-91
2022/08/02 01:13:01;;;;;;;10.45;2.80;;;11.70;99.90;;;;;;4738301;30;20078;-91
2022/08/02 01:15:27;;;;;;;10.40;2.88;;;11.70;99.90;;;;;;4737455;30;20129;-91
2022/08/02 01:18:02;;;;;;;7.85;3.15;;;11.60;99.90;;;;;;4738349;30;20052;-91
2022/08/02 01:20:56;;;;;;;6.32;2.10;;;11.70;99.90;;;;;;4737857;30;20062;-91
2022/08/02 01:23:45;;;;;;;6.85;2.47;;;11.70;99.90;;;;;;4752579;30;20050;-91
2022/08/02 01:26:26;;;;;;;11.43;3.35;;;11.60;99.90;;;;;;4762334;30;20052;-90
2022/08/02 01:29:14;;;;;;;7.70;2.30;;;11.60;99.90;;;;;;4737672;30;20058;-91
2022/08/02 01:31:54;;;;;;;6.82;2.33;;;11.50;99.90;;;;;;4737319;30;20047;-91
2022/08/02 01:34:32;;;;;;;11.43;3.13;;;11.50;99.90;;;;;;4766622;30;20047;-90
2022/08/02 01:37:14;;;;;;;11.57;3.05;;;11.50;99.90;;;;;;4752030;30;20052;-91
2022/08/02 01:39:43;;;;;;;9.40;3.13;;;11.50;99.90;;;;;;4737412;30;20151;-91
2022/08/02 01:42:10;;;;;;;17.17;4.88;;;11.40;99.90;;;;;;4767063;30;20056;-91
2022/08/02 01:44:39;;;;;;;10.77;3.20;;;11.40;99.90;;;;;;4766947;30;20522;-91
2022/08/02 01:47:12;;;;;;;9.02;3.22;;;11.40;99.90;;;;;;4767262;30;20127;-91
2022/08/02 01:49:39;;;;;;;;;;;11.50;99.90;;;;;;4767038;30;20052;-91
2022/08/02 01:52:22;;;;;;;8.80;2.88;;;11.40;99.90;;;;;;4752329;30;19926;-91
2022/08/02 01:54:51;;;;;;;;;;;11.40;99.90;;;;;;4767751;30;20381;-91
2022/08/02 01:57:19;;;;;;;10.35;2.97;;;11.40;99.90;;;;;;4766192;30;20013;-91
2022/08/02 01:59:46;;;;;;;8.02;3.00;;;11.40;99.90;;;;;;4766990;30;20059;-90
2022/08/02 02:02:14;;;;;;;14.43;3.25;;;11.40;99.90;;;;;;4766146;30;20092;-91
2022/08/02 02:04:41;;;;;;;20.00;4.07;;;11.40;99.90;;;;;;4737071;30;20104;-91
2022/08/02 02:07:08;;;;;;;10.20;3.38;;;11.40;99.90;;;;;;4766392;30;20043;-91
2022/08/02 02:09:37;;;;;;;17.15;3.60;;;11.40;99.90;;;;;;4766685;30;20035;-91
2022/08/02 02:12:05;;;;;;;9.48;3.58;;;11.40;99.90;;;;;;4765959;30;20048;-91
2022/08/02 02:14:32;;;;;;;12.30;3.72;;;11.40;99.90;;;;;;4769539;30;20166;-90
2022/08/02 02:16:59;;;;;;;16.23;4.28;;;11.40;99.90;;;;;;4755208;30;20108;-91
2022/08/02 02:19:26;;;;;;;16.15;4.53;;;11.50;99.90;;;;;;4754311;30;20051;-90
2022/08/02 02:21:52;;;;;;;11.15;4.68;;;11.50;99.90;;;;;;4754689;30;20047;-91
2022/08/02 02:24:17;;;;;;;16.65;4.82;;;11.50;99.90;;;;;;4754506;30;20058;-92
2022/08/02 02:26:45;;;;;;;14.02;4.85;;;11.60;99.90;;;;;;4752057;30;20132;-91
2022/08/02 02:29:11;;;;;;;17.92;5.07;;;11.60;99.90;;;;;;4751309;30;20044;-92
2022/08/02 02:31:41;;;;;;;15.63;5.68;;;11.70;99.90;;;;;;4754062;30;20094;-91
2022/08/02 02:34:13;;;;;;;15.05;4.78;;;11.60;99.90;;;;;;4754503;30;20074;-89
2022/08/02 02:36:44;;;;;;;12.93;5.03;;;11.70;99.90;;;;;;4754687;30;20054;-91
2022/08/02 02:39:12;;;;;;;13.38;4.72;;;11.70;99.90;;;;;;4754181;30;20090;-91
2022/08/02 02:41:39;;;;;;;11.20;5.00;;;11.70;99.90;;;;;;4754692;30;20063;-90
2022/08/02 02:44:10;;;;;;;16.75;5.22;;;11.70;99.90;;;;;;4754345;30;20120;-91
2022/08/02 02:46:36;;;;;;;19.40;5.30;;;11.80;99.90;;;;;;4754639;30;20051;-92
2022/08/02 02:49:02;;;;;;;19.08;4.72;;;11.70;99.90;;;;;;4754337;30;20043;-92
2022/08/02 02:51:29;;;;;;;13.32;5.15;;;11.80;99.90;;;;;;4754318;30;20130;-92
2022/08/02 02:53:56;;;;;;;15.88;4.72;;;11.80;99.90;;;;;;4754851;30;20047;-93
2022/08/02 02:56:23;;;;;;;15.48;5.50;;;11.80;99.90;;;;;;4754168;30;20062;-91
2022/08/02 02:58:49;;;;;;;19.85;5.80;;;11.80;99.90;;;;;;4754337;30;20067;-92
2022/08/02 03:01:28;;;;;;;18.02;4.20;;;11.80;99.90;;;;;;4753510;30;20412;-92
2022/08/02 03:03:58;;;;;;;15.32;4.53;;;11.80;99.90;;;;;;4766348;30;20507;-90
2022/08/02 03:06:24;;;;;;;19.55;5.22;;;11.80;99.90;;;;;;4751995;30;20051;-91
2022/08/02 03:08:50;;;;;;;16.02;5.72;;;11.80;99.90;;;;;;4753981;30;20047;-92
2022/08/02 03:11:17;;;;;;;20.92;5.40;;;11.90;99.90;;;;;;4754357;30;20048;-92
2022/08/02 03:13:43;;;;;;;17.25;5.50;;;11.90;99.90;;;;;;4754797;30;20488;-89
2022/08/02 03:16:10;;;;;;;17.08;5.85;;;11.90;99.90;;;;;;4753849;30;20047;-91
2022/08/02 03:18:38;;;;;;;13.82;5.28;;;11.80;99.90;;;;;;4754476;30;20047;-93
2022/08/02 03:21:06;;;;;;;14.43;5.50;;;11.90;99.90;;;;;;4754192;30;20055;-93
2022/08/02 03:23:33;;;;;;;14.52;4.78;;;11.80;99.90;;;;;;4754849;30;20196;-92
2022/08/02 03:26:00;;;;;;;14.13;5.43;;;11.80;99.90;;;;;;4757328;30;20059;-92
2022/08/02 03:28:26;;;;;;;18.27;5.75;;;11.80;99.90;;;;;;4757693;30;20051;-93
2022/08/02 03:30:52;;;;;;;12.55;4.85;;;11.80;99.90;;;;;;4757252;30;20048;-93
2022/08/02 03:33:19;;;;;;;14.38;5.15;;;11.80;99.90;;;;;;4757721;30;20044;-92
2022/08/02 03:35:47;;;;;;;19.67;5.75;;;11.80;99.90;;;;;;4757712;30;20051;-92
2022/08/02 03:38:16;;;;;;;13.38;5.18;;;11.80;99.90;;;;;;4757262;30;20137;-93
2022/08/02 03:40:43;;;;;;;13.55;5.18;;;11.90;99.90;;;;;;4757448;30;20047;-92
2022/08/02 03:43:09;;;;;;;16.83;5.10;;;11.90;99.90;;;;;;4757153;30;20055;-93
2022/08/02 03:45:38;;;;;;;16.80;5.45;;;11.90;99.90;;;;;;4756999;30;20064;-93
2022/08/02 03:48:05;;;;;;;17.70;5.10;;;11.90;99.90;;;;;;4756372;30;20062;-93
2022/08/02 03:50:32;;;;;;;19.48;4.82;;;11.90;99.90;;;;;;4756938;30;20056;-92
2022/08/02 03:52:58;;;;;;;21.27;5.30;;;12.00;99.90;;;;;;4757034;30;20043;-92
2022/08/02 03:55:24;;;;;;;17.42;5.00;;;12.00;99.90;;;;;;4756842;30;20100;-92
2022/08/02 03:57:50;;;;;;;19.05;5.65;;;12.00;99.90;;;;;;4757347;30;20051;-92
2022/08/02 04:00:20;;;;;;;12.73;4.93;;;12.00;99.90;;;;;;4755477;30;20508;-92
2022/08/02 04:02:46;;;;;;;17.13;5.13;;;12.00;99.90;;;;;;4771947;30;20104;-92
2022/08/02 04:05:12;;;;;;;15.40;4.65;;;12.00;99.90;;;;;;4756627;30;20051;-91
2022/08/02 04:07:38;;;;;;;14.57;4.63;;;12.10;99.90;;;;;;4756994;30;20059;-92
2022/08/02 04:10:05;;;;;;;11.55;4.70;;;12.10;99.90;;;;;;4756350;30;20069;-91
2022/08/02 04:12:31;;;;;;;13.93;4.25;;;12.10;99.90;;;;;;4756954;30;20047;-92
2022/08/02 04:14:58;;;;;;;12.95;4.97;;;12.10;99.90;;;;;;4757066;30;20058;-93
2022/08/02 04:17:26;;;;;;;19.20;4.85;;;12.10;99.90;;;;;;4756485;30;20100;-92
2022/08/02 04:19:59;;;;;;;16.80;5.35;;;12.20;99.90;;;;;;4756552;30;20047;-93
2022/08/02 04:22:28;;;;;;;;;;;12.20;99.90;;;;;;4756585;30;20177;-89
2022/08/02 04:24:58;;;;;;;15.35;5.55;;;12.20;99.90;;;;;;4771112;30;19925;-88
2022/08/02 04:27:25;;;;;;;14.05;5.35;;;12.20;99.90;;;;;;4756443;30;20075;-89
2022/08/02 04:29:52;;;;;;;20.75;5.28;;;12.20;99.90;;;;;;4756267;30;20548;-91
2022/08/02 04:32:19;;;;;;;18.48;5.13;;;12.30;99.90;;;;;;4756324;30;20053;-92
2022/08/02 04:34:45;;;;;;;14.32;5.30;;;12.30;99.90;;;;;;4756576;30;20073;-93
2022/08/02 04:37:12;;;;;;;12.77;4.70;;;12.30;99.90;;;;;;4755918;30;20050;-94
2022/08/02 04:39:39;;;;;;;16.10;5.90;;;12.30;99.90;;;;;;4771369;30;20113;-93
2022/08/02 04:42:05;;;;;;;15.13;5.43;;;12.40;99.90;;;;;;4770848;30;20511;-92
2022/08/02 04:44:31;;;;;;;17.27;5.10;;;12.40;99.90;;;;;;4771107;30;20090;-93
2022/08/02 04:47:01;;;;;;;12.73;5.18;;;12.50;99.90;;;;;;4770589;30;20090;-95
2022/08/02 04:49:28;;;;;;;14.75;5.35;;;12.50;99.90;;;;;;4770660;30;20146;-94
2022/08/02 04:51:54;;;;;;;14.23;5.80;;;12.60;99.90;;;;;;4771011;30;20084;-95
2022/08/02 04:54:20;;;;;;;14.40;6.07;;;12.60;99.90;;;;;;4763306;30;20512;-94
2022/08/02 04:56:46;;;;;;;13.05;5.22;;;12.70;99.90;;;;;;4755825;30;20051;-93
2022/08/02 04:59:12;;;;;;;17.52;6.22;;;12.70;99.90;;;;;;4769904;30;20511;-96
2022/08/02 05:01:38;;;;;;;15.88;6.10;;;12.80;99.90;;;;;;4770605;30;20456;-96
2022/08/02 05:04:04;;;;;;;21.70;6.07;;;12.90;99.90;;;;;;4770847;30;20047;-94
2022/08/02 05:06:31;;;;;;;14.43;5.43;;;12.90;99.90;;;;;;4770637;30;20161;-94
2022/08/02 05:08:57;;;;;;;16.10;5.13;;;13.00;99.90;;;;;;4770865;30;20089;-95
2022/08/02 05:11:24;;;;;;;15.45;5.72;;;13.00;99.90;;;;;;4770249;30;20070;-96
2022/08/02 05:13:50;;;;;;;16.52;6.35;;;13.10;99.90;;;;;;4770618;30;20139;-93
2022/08/02 05:16:16;;;;;;;12.90;4.80;;;13.20;99.90;;;;;;4769968;30;20055;-94
2022/08/02 05:18:42;;;;;;;15.38;5.20;;;13.30;99.90;;;;;;4770907;30;20193;-92
2022/08/02 05:21:08;;;;;;;15.25;5.25;;;13.40;99.90;;;;;;4770597;30;20556;-93
2022/08/02 05:23:34;;;;;;;13.60;4.40;;;13.50;99.90;;;;;;4770383;30;20043;-94
2022/08/02 05:26:00;;;;;;;13.52;4.80;;;13.60;99.90;;;;;;4770598;30;20142;-91
2022/08/02 05:28:26;;;;;;;11.65;4.40;;;13.70;99.90;;;;;;4761445;30;20055;-93
2022/08/02 05:30:52;;;;;;;16.35;5.00;;;13.80;99.90;;;;;;4755683;30;20051;-93
2022/08/02 05:33:18;;;;;;;14.18;4.90;;;13.90;99.90;;;;;;4755445;30;20050;-93
2022/08/02 05:35:43;;;;;;;14.23;4.65;;;14.00;99.90;;;;;;4748125;30;20050;-93
2022/08/02 05:38:09;;;;;;;12.30;3.88;;;14.10;99.90;;;;;;4755222;30;20063;-94
2022/08/02 05:40:35;;;;;;;13.40;4.35;;;14.20;99.90;;;;;;4755043;30;20050;-94
2022/08/02 05:43:00;;;;;;;12.32;4.13;;;14.30;99.90;;;;;;4755501;30;20047;-93
2022/08/02 05:45:26;;;;;;;13.50;4.10;;;14.40;99.90;;;;;;4754989;30;20462;-93
2022/08/02 05:47:52;;;;;;;16.40;4.38;;;14.50;99.90;;;;;;4754732;30;20051;-93
2022/08/02 05:50:18;;;;;;;16.48;4.20;;;14.60;99.90;;;;;;4755313;30;20051;-93
2022/08/02 05:52:47;;;;;;;10.75;4.07;;;14.60;99.90;;;;;;4752864;30;20058;-93
2022/08/02 05:55:21;;;;;;;15.48;4.13;;;14.70;99.90;;;;;;4754518;30;20055;-93
2022/08/02 05:58:12;;;;;;;16.88;4.68;;;14.80;99.90;;;;;;4769953;30;20047;-94
2022/08/02 06:00:40;;;;;;;17.10;4.00;;;14.90;99.90;;;;;;4769268;30;20107;-94
2022/08/02 06:03:35;;;;;;;11.45;3.80;;;14.90;99.90;;;;;;4754801;30;20154;-94
2022/08/02 06:06:11;;;;;;;14.43;4.38;;;15.00;99.90;;;;;;4769664;30;20138;-94
2022/08/02 06:08:42;;;;;;;14.25;3.88;;;15.10;99.90;;;;;;4754855;30;20058;-93
2022/08/02 06:11:12;;;;;;;11.02;3.75;;;15.20;99.90;;;;;;4769542;30;20059;-94
2022/08/02 06:13:40;;;;;;;14.15;3.80;;;15.30;99.90;;;;;;4769636;30;20058;-94
2022/08/02 06:16:06;;;;;;;14.00;3.83;;;15.40;99.90;;;;;;4769545;30;20137;-91
2022/08/02 06:18:33;;;;;;;7.70;3.00;;;15.60;99.90;;;;;;4769856;30;20055;-95
2022/08/02 06:21:03;;;;;;;10.48;3.03;;;15.70;99.90;;;;;;4755449;30;20157;-93
2022/08/02 06:23:30;;;;;;;15.55;3.70;;;15.80;99.90;;;;;;4754685;30;20046;-94
2022/08/02 06:25:56;;;;;;;10.65;2.85;;;16.00;99.90;;;;;;4754774;30;20058;-94
2022/08/02 06:28:23;;;;;;;8.27;2.47;;;16.10;99.90;;;;;;4754182;30;20087;-92
2022/08/02 06:30:49;;;;;;;16.45;2.58;;;16.30;99.90;;;;;;4755006;30;20135;-93
2022/08/02 06:33:15;;;;;;;8.48;1.92;;;16.50;99.90;;;;;;4754573;30;20047;-93
2022/08/02 06:35:51;;;;;;;8.82;2.30;;;16.60;99.90;;;;;;4755115;30;20057;-93
2022/08/02 06:38:21;;;;;;;14.25;2.72;;;16.70;99.90;;;;;;4754152;30;20047;-95
2022/08/02 06:40:55;;;;;;;10.45;2.47;;;16.80;99.90;;;;;;4755264;30;20112;-94
2022/08/02 06:43:42;;;;;;;11.15;2.25;;;16.90;99.90;;;;;;4754689;30;20116;-92
2022/08/02 06:46:08;;;;;;;16.35;2.70;;;17.00;99.90;;;;;;4747576;30;20062;-93
2022/08/02 06:48:35;;;;;;;7.25;2.00;;;17.00;99.90;;;;;;4751347;30;20138;-94
2022/08/02 06:51:02;;;;;;;10.38;2.53;;;17.10;99.90;;;;;;4751717;30;20085;-92
2022/08/02 06:53:28;;;;;;;9.23;2.50;;;17.10;99.90;;;;;;4751384;30;20044;-92
2022/08/02 06:55:54;;;;;;;12.65;2.28;;;17.20;99.90;;;;;;4751894;30;20051;-93
2022/08/02 06:58:19;;;;;;;17.00;2.20;;;17.20;99.90;;;;;;4751182;30;20056;-88
2022/08/02 07:00:46;;;;;;;10.27;1.90;;;17.40;99.90;;;;;;4753340;30;20154;-87
2022/08/02 07:03:12;;;;;;;12.23;2.17;;;17.50;99.90;;;;;;4750032;30;20055;-87
2022/08/02 07:05:39;;;;;;;12.32;2.58;;;17.60;99.90;;;;;;4756326;30;20047;-86
2022/08/02 07:08:05;;;;;;;10.02;2.30;;;17.80;99.90;;;;;;4754595;30;20052;-83
2022/08/02 07:10:30;;;;;;;9.85;1.98;;;18.00;99.90;;;;;;4754248;30;20052;-83
2022/08/02 07:12:56;;;;;;;10.30;2.35;;;18.20;99.90;;;;;;4754655;30;20086;-83
2022/08/02 07:15:22;;;;;;;15.82;2.20;;;18.30;99.90;;;;;;4754715;30;20556;-88
2022/08/02 07:17:48;;;;;;;7.22;1.58;;;18.50;99.90;;;;;;4756913;30;20051;-88
2022/08/02 07:20:13;;;;;;;9.48;1.50;;;18.60;99.90;;;;;;4756579;30;20051;-89
2022/08/02 07:22:40;;;;;;;8.77;1.60;;;18.70;99.90;;;;;;4757164;30;20047;-86
2022/08/02 07:25:06;;;;;;;7.68;1.40;;;18.70;99.90;;;;;;4743749;30;20534;-86
2022/08/02 07:27:32;;;;;;;7.20;1.45;;;18.60;99.90;;;;;;4753437;30;20089;-84
2022/08/02 07:29:59;;;;;;;8.80;1.98;;;18.60;99.90;;;;;;4783554;30;20075;-91
2022/08/02 07:32:27;;;;;;;6.75;1.50;;;18.60;99.90;;;;;;4756032;30;20052;-93
2022/08/02 07:34:55;;;;;;;9.65;2.20;;;18.80;99.90;;;;;;4754289;30;20056;-93
2022/08/02 07:37:24;;;;;;;10.63;1.83;;;18.90;99.90;;;;;;4753891;30;20051;-92
2022/08/02 07:39:50;;;;;;;9.57;1.70;;;19.00;99.90;;;;;;4761887;30;20059;-92
2022/08/02 07:42:16;;;;;;;10.35;1.92;;;19.10;99.90;;;;;;4756814;30;20068;-92
2022/08/02 07:44:41;;;;;;;8.13;1.40;;;19.20;99.90;;;;;;4770762;30;20055;-92
2022/08/02 07:47:07;;;;;;;10.82;1.25;;;19.30;99.90;;;;;;4760419;30;20043;-91
2022/08/02 07:49:33;;;;;;;6.75;1.40;;;19.40;99.90;;;;;;4771848;30;20184;-92
2022/08/02 07:51:59;;;;;;;5.57;1.17;;;19.60;99.90;;;;;;4772030;30;20670;-93
2022/08/02 07:54:24;;;;;;;6.90;1.67;;;19.70;99.90;;;;;;4757157;30;20350;-94
2022/08/02 07:56:52;;;;;;;6.05;1.13;;;19.80;99.90;;;;;;4757341;30;20116;-93
2022/08/02 07:59:18;;;;;;;10.40;1.27;;;19.90;99.90;;;;;;4756929;30;20139;-91
2022/08/02 08:01:44;;;;;;;8.25;1.17;;;20.00;99.90;;;;;;4747122;30;20051;-91
2022/08/02 08:04:10;;;;;;;5.35;1.33;;;20.10;99.90;;;;;;4753501;30;20133;-91
2022/08/02 08:06:36;;;;;;;9.18;1.27;;;20.30;99.90;;;;;;4754324;30;20043;-92
2022/08/02 08:09:02;;;;;;;6.43;1.33;;;20.40;99.90;;;;;;4753859;30;20436;-92
2022/08/02 08:11:28;;;;;;;5.82;1.17;;;20.50;99.90;;;;;;4752910;30;20047;-91
2022/08/02 08:13:54;;;;;;;6.53;1.23;;;20.60;99.90;;;;;;4754108;30;20424;-91
2022/08/02 08:16:20;;;;;;;6.30;1.10;;;20.70;99.90;;;;;;4753252;30;20066;-92
2022/08/02 08:18:46;;;;;;;6.45;0.90;;;20.80;99.90;;;;;;4753993;30;20052;-92
2022/08/02 08:21:12;;;;;;;3.75;0.70;;;20.90;99.90;;;;;;4753724;30;20044;-91
2022/08/02 08:23:40;;;;;;;9.35;1.02;;;20.90;99.90;;;;;;4753748;30;20105;-92
2022/08/02 08:26:06;;;;;;;2.90;0.70;;;21.00;99.90;;;;;;4753560;30;20055;-92
2022/08/02 08:28:34;;;;;;;6.40;0.80;;;21.10;99.90;;;;;;4762404;30;20119;-93
2022/08/02 08:31:00;;;;;;;2.25;0.50;;;21.20;99.90;;;;;;4739357;30;20051;-94
2022/08/02 08:33:26;;;;;;;6.10;0.80;;;21.30;99.90;;;;;;4738488;30;20051;-93
2022/08/02 08:35:52;;;;;;;8.90;0.73;;;21.30;99.90;;;;;;4738511;30;20120;-93
2022/08/02 08:38:18;;;;;;;7.40;1.38;;;21.40;99.90;;;;;;4736818;30;20116;-92
2022/08/02 08:40:45;;;;;;;3.80;0.93;;;21.40;99.90;;;;;;4738619;30;20052;-93
2022/08/02 08:43:13;;;;;;;3.80;0.88;;;21.50;99.90;;;;;;4738999;30;20056;-89
2022/08/02 08:45:44;;;;;;;5.63;0.63;;;21.50;99.90;;;;;;4740496;30;20052;-93
2022/08/02 08:48:17;;;;;;;2.45;0.50;;;21.50;99.90;;;;;;4738484;30;20070;-93
2022/08/02 08:50:51;;;;;;;;;;;21.70;99.90;;;;;;4738759;30;20154;-90
2022/08/02 08:53:20;;;;;;;3.72;0.50;;;21.70;99.90;;;;;;4767880;30;20020;-91
2022/08/02 08:55:47;;;;;;;1.55;0.50;;;21.80;99.90;;;;;;4753200;30;20044;-92
2022/08/02 08:58:13;;;;;;;4.07;0.65;;;21.80;99.90;;;;;;4738498;30;20051;-92
2022/08/02 09:00:40;;;;;;;3.75;0.88;;;21.90;99.90;;;;;;4737950;30;20556;-93
2022/08/02 09:03:07;;;;;;;3.72;0.52;;;21.90;99.90;;;;;;4738287;30;20110;-91
2022/08/02 09:05:34;;;;;;;3.97;0.68;;;22.00;99.90;;;;;;4738709;30;20090;-91
2022/08/02 09:08:00;;;;;;;2.00;0.40;;;22.10;99.90;;;;;;4740013;30;20062;-92
2022/08/02 09:10:39;;;;;;;5.15;0.88;;;22.20;99.90;;;;;;4737384;30;20055;-90
2022/08/02 09:13:16;;;;;;;5.53;0.77;;;22.30;99.90;;;;;;4737977;30;20051;-92
2022/08/02 09:15:45;;;;;;;3.15;0.70;;;22.40;99.90;;;;;;4738032;30;20416;-92
2022/08/02 09:18:11;;;;;;;7.32;0.60;;;22.60;99.90;;;;;;4752260;30;20062;-92
2022/08/02 09:20:59;;;;;;;2.85;0.60;;;22.70;99.90;;;;;;4755848;29;20071;-93
2022/08/02 09:23:32;;;;;;;3.03;0.63;;;22.80;99.90;;;;;;4755581;30;20047;-93
2022/08/02 09:26:01;;;;;;;4.68;0.60;;;22.90;99.90;;;;;;4756366;30;20073;-93
2022/08/02 09:28:28;;;;;;;2.60;0.77;;;23.10;99.90;;;;;;4754909;30;20058;-94
2022/08/02 09:30:58;;;;;;;4.72;0.70;;;23.20;99.90;;;;;;4755922;30;20142;-93
2022/08/02 09:33:30;;;;;;;4.13;0.90;;;23.40;99.90;;;;;;4755982;30;20074;-91
2022/08/02 09:36:03;;;;;;;3.97;0.95;;;23.50;99.90;;;;;;4755816;30;20143;-93
2022/08/02 09:38:29;;;;;;;2.03;0.80;;;23.80;99.90;;;;;;4755447;30;20047;-92
2022/08/02 09:40:56;;;;;;;3.58;0.80;;;23.80;99.90;;;;;;4755541;30;20504;-92
2022/08/02 09:43:40;;;;;;;3.42;0.73;;;24.00;99.90;;;;;;4755585;30;20043;-92
2022/08/02 09:46:25;;;;;;;4.18;0.70;;;24.00;99.90;;;;;;4770309;30;20043;-93
2022/08/02 09:48:54;;;;;;;4.45;1.00;;;24.20;99.90;;;;;;4755542;30;20055;-92
2022/08/02 09:51:24;;;;;;;3.60;1.00;;;24.20;99.90;;;;;;4754604;30;20404;-91
2022/08/02 09:53:52;;;;;;;2.72;0.70;;;24.30;99.90;;;;;;4752457;30;20093;-93
2022/08/02 09:56:19;;;;;;;7.28;1.00;;;24.20;99.90;;;;;;4737276;30;20052;-92
2022/08/02 09:58:45;;;;;;;4.60;0.80;;;24.20;99.90;;;;;;4737847;30;20110;-95
2022/08/02 10:01:11;;;;;;;3.65;0.80;;;24.10;99.90;;;;;;4736843;30;20052;-93
2022/08/02 10:03:51;;;;;;;4.43;0.85;;;23.90;99.90;;;;;;4751792;30;20052;-93
2022/08/02 10:06:17;;;;;;;4.40;0.73;;;23.90;99.90;;;;;;4736955;30;20054;-91
2022/08/02 10:08:43;;;;;;;4.75;1.02;;;24.00;99.90;;;;;;4737695;30;20150;-93
2022/08/02 10:11:09;;;;;;;4.78;0.90;;;24.00;99.90;;;;;;4736990;30;20474;-93
2022/08/02 10:13:35;;;;;;;4.10;0.88;;;24.10;99.90;;;;;;4737469;30;20465;-94
2022/08/02 10:16:02;;;;;;;4.78;0.90;;;24.20;99.90;;;;;;4737308;30;20117;-91
2022/08/02 10:18:29;;;;;;;5.53;0.93;;;24.30;99.90;;;;;;4737204;30;20051;-94
2022/08/02 10:20:55;;;;;;;6.13;1.25;;;24.30;99.90;;;;;;4737464;30;20063;-93
2022/08/02 10:23:24;;;;;;;4.68;1.38;;;24.30;99.90;;;;;;4736501;30;20052;-91
2022/08/02 10:25:52;;;;;;;5.07;1.30;;;24.30;99.90;;;;;;4738149;30;20059;-91
2022/08/02 10:28:28;;;;;;;6.28;1.25;;;24.40;99.90;;;;;;4736851;30;20063;-91
2022/08/02 10:30:55;;;;;;;5.85;1.42;;;24.50;99.90;;;;;;4736811;30;20067;-92
2022/08/02 10:33:25;;;;;;;6.97;1.30;;;24.70;99.90;;;;;;4754312;30;20055;-90
2022/08/02 10:35:53;;;;;;;11.43;1.40;;;24.80;99.90;;;;;;4742773;30;20086;-90
2022/08/02 10:38:20;;;;;;;8.10;1.20;;;24.90;99.90;;;;;;4742807;30;20133;-90
2022/08/02 10:40:48;;;;;;;6.20;1.00;;;25.10;99.90;;;;;;4742933;30;20054;-91
2022/08/02 10:43:35;;;;;;;6.07;1.38;;;25.40;99.90;;;;;;4742769;30;20048;-91
2022/08/02 10:46:20;;;;;;;12.32;1.75;;;25.40;99.90;;;;;;4757191;30;20134;-91
2022/08/02 10:49:08;;;;;;;3.53;0.93;;;25.50;99.90;;;;;;4757617;30;20138;-90
2022/08/02 10:52:00;;;;;;;8.82;1.58;;;25.60;99.90;;;;;;4742858;30;20138;-91
2022/08/02 10:54:30;;;;;;;11.82;1.88;;;25.70;99.90;;;;;;4742390;30;20061;-91
2022/08/02 10:56:57;;;;;;;10.45;1.70;;;25.70;99.90;;;;;;4743020;30;20059;-91
2022/08/02 10:59:25;;;;;;;6.10;1.60;;;25.60;99.90;;;;;;4742061;30;20511;-91
2022/08/02 11:01:55;;;;;;;7.30;1.50;;;25.60;99.90;;;;;;4742562;30;20146;-91
2022/08/02 11:04:21;;;;;;;10.30;1.85;;;25.70;99.90;;;;;;4742179;30;20393;-92
2022/08/02 11:07:09;;;;;;;11.35;2.30;;;25.80;99.90;;;;;;4742570;30;20065;-92
2022/08/02 11:09:36;;;;;;;9.80;2.03;;;26.20;99.90;;;;;;4742788;30;20081;-90
2022/08/02 11:12:06;;;;;;;6.40;2.10;;;26.30;99.90;;;;;;4741747;30;20051;-90
2022/08/02 11:14:35;;;;;;;7.55;1.52;;;26.40;99.90;;;;;;4741247;30;20048;-90
2022/08/02 11:17:05;;;;;;;10.52;2.15;;;26.30;99.90;;;;;;4743004;30;20048;-89
2022/08/02 11:19:32;;;;;;;8.18;2.28;;;26.20;99.90;;;;;;4742478;30;20058;-92
2022/08/02 11:22:04;;;;;;;7.88;1.85;;;26.10;99.90;;;;;;4742916;30;20059;-90
2022/08/02 11:24:33;;;;;;;8.15;1.90;;;26.10;99.90;;;;;;4742088;30;20113;-91
2022/08/02 11:27:01;;;;;;;8.85;1.42;;;26.00;99.90;;;;;;4742625;30;20044;-91
2022/08/02 11:29:34;;;;;;;5.00;1.48;;;26.00;99.90;;;;;;4742035;30;20066;-90
2022/08/02 11:32:00;;;;;;;4.78;1.40;;;26.00;99.90;;;;;;4742524;30;20059;-90
2022/08/02 11:34:27;;;;;;;7.50;1.55;;;26.00;99.90;;;;;;4742341;30;20106;-91
2022/08/02 11:36:53;;;;;;;8.60;1.70;;;26.00;99.90;;;;;;4742731;30;20123;-91
2022/08/02 11:39:22;;;;;;;8.43;1.92;;;26.00;99.90;;;;;;4742236;30;20055;-89
2022/08/02 11:41:50;;;;;;;7.22;1.70;;;25.90;99.90;;;;;;4742327;30;20105;-90
2022/08/02 11:44:17;;;;;;;5.90;1.50;;;26.00;99.90;;;;;;4740265;30;20124;-91
2022/08/02 11:46:42;;;;;;;6.28;1.55;;;26.00;99.90;;;;;;4739232;30;20083;-91
2022/08/02 11:49:15;;;;;;;7.53;2.00;;;26.20;99.90;;;;;;4739281;30;20083;-89
2022/08/02 11:51:53;;;;;;;3.75;1.70;;;26.30;99.90;;;;;;4739297;30;20115;-89
2022/08/02 11:54:24;;;;;;;5.53;1.40;;;26.40;99.90;;;;;;4738938;30;20055;-90
2022/08/02 11:56:50;;;;;;;6.85;1.52;;;26.50;99.90;;;;;;4739394;30;20078;-89
2022/08/02 11:59:16;;;;;;;8.13;1.42;;;26.50;99.90;;;;;;4738761;30;20493;-92
2022/08/02 12:01:42;;;;;;;7.38;1.50;;;26.40;99.90;;;;;;4738554;30;20066;-91
2022/08/02 12:04:08;;;;;;;10.55;1.60;;;26.50;99.90;;;;;;4768439;30;20112;-91
2022/08/02 12:06:34;;;;;;;3.72;1.50;;;26.50;99.90;;;;;;4739255;30;20052;-91
2022/08/02 12:09:06;;;;;;;7.50;1.60;;;26.60;99.90;;;;;;4739330;30;20087;-90
2022/08/02 12:11:33;;;;;;;5.57;1.45;;;26.70;99.90;;;;;;4739189;30;20108;-90
2022/08/02 12:13:59;;;;;;;5.47;1.50;;;26.70;99.90;;;;;;4739196;30;20417;-91
2022/08/02 12:19:18;;;;;;;4.27;1.33;;;26.60;99.90;;;;;;4753646;30;20339;-90
2022/08/02 12:21:45;;;;;;;13.27;1.98;;;26.50;99.90;;;;;;4738427;30;20794;-90
2022/08/02 12:24:12;;;;;;;3.67;1.40;;;26.30;99.90;;;;;;4753419;30;20051;-87
2022/08/02 12:26:43;;;;;;;5.15;1.30;;;26.20;99.90;;;;;;4738177;30;20516;-90
2022/08/02 12:29:09;;;;;;;5.22;1.40;;;26.10;99.90;;;;;;4738609;30;20059;-91
2022/08/02 12:31:41;;;;;;;6.00;1.75;;;26.00;99.90;;;;;;4738022;30;20044;-90
2022/08/02 12:34:15;;;;;;;3.75;1.80;;;25.90;99.90;;;;;;4738467;30;20083;-89
2022/08/02 12:36:41;;;;;;;6.82;1.92;;;25.90;99.90;;;;;;4738682;30;20156;-90
2022/08/02 12:39:13;;;;;;;4.07;2.08;;;25.90;99.90;;;;;;4738526;30;20520;-91
2022/08/02 12:41:39;;;;;;;7.78;3.13;;;25.90;99.90;;;;;;4738535;30;20102;-90
2022/08/02 12:44:15;;;;;;;7.00;2.70;;;25.90;99.90;;;;;;4737936;30;20047;-86
2022/08/02 12:46:41;;;;;;;7.45;3.10;;;25.90;99.90;;;;;;4737978;30;20054;-91
2022/08/02 12:49:15;;;;;;;6.85;3.00;;;25.80;99.90;;;;;;4737998;30;20047;-89
2022/08/02 12:51:41;;;;;;;7.38;3.35;;;25.80;99.90;;;;;;4738046;30;20051;-90
2022/08/02 12:54:19;;;;;;;6.40;3.00;;;25.70;99.90;;;;;;4737772;30;20053;-91